sensor_id;sensor_type;location;lat;lon;timestamp;P1;durP1;ratioP1;P2;durP2;ratioP2
12122;SDS011;6125;59.628;17.852;2023-01-09T00:01:35;6.10;;;4.43;;
12122;SDS011;6125;59.628;17.852;2023-01-09T00:04:04;6.77;;;3.77;;
12122;SDS011;6125;59.628;17.852;2023-01-09T00:06:31;10.67;;;4.57;;
12122;SDS011;6125;59.628;17.852;2023-01-09T00:08:59;9.63;;;4.40;;
12122;SDS011;6125;59.628;17.852;2023-01-09T00:11:27;7.07;;;4.20;;
12122;SDS011;6125;59.628;17.852;2023-01-09T00:13:57;5.83;;;4.17;;
12122;SDS011;6125;59.628;17.852;2023-01-09T00:16:24;8.17;;;3.90;;
12122;SDS011;6125;59.628;17.852;2023-01-09T00:18:52;7.43;;;4.43;;
12122;SDS011;6125;59.628;17.852;2023-01-09T00:21:21;7.17;;;4.10;;
12122;SDS011;6125;59.628;17.852;2023-01-09T00:23:52;6.53;;;3.90;;
12122;SDS011;6125;59.628;17.852;2023-01-09T00:26:19;6.13;;;4.20;;
12122;SDS011;6125;59.628;17.852;2023-01-09T00:28:47;5.63;;;3.73;;
12122;SDS011;6125;59.628;17.852;2023-01-09T00:31:20;5.20;;;3.20;;
12122;SDS011;6125;59.628;17.852;2023-01-09T00:33:52;6.43;;;3.37;;
12122;SDS011;6125;59.628;17.852;2023-01-09T00:36:25;4.80;;;3.13;;
12122;SDS011;6125;59.628;17.852;2023-01-09T00:38:52;5.47;;;3.67;;
12122;SDS011;6125;59.628;17.852;2023-01-09T00:41:21;5.20;;;3.17;;
12122;SDS011;6125;59.628;17.852;2023-01-09T00:43:52;5.60;;;3.40;;
12122;SDS011;6125;59.628;17.852;2023-01-09T00:46:28;5.30;;;3.33;;
12122;SDS011;6125;59.628;17.852;2023-01-09T00:49:02;4.83;;;3.40;;
12122;SDS011;6125;59.628;17.852;2023-01-09T00:51:32;5.83;;;3.70;;
12122;SDS011;6125;59.628;17.852;2023-01-09T00:54:00;5.50;;;3.53;;
12122;SDS011;6125;59.628;17.852;2023-01-09T00:56:28;5.60;;;3.73;;
12122;SDS011;6125;59.628;17.852;2023-01-09T00:58:55;6.17;;;4.00;;
12122;SDS011;6125;59.628;17.852;2023-01-09T01:01:22;6.87;;;3.57;;
12122;SDS011;6125;59.628;17.852;2023-01-09T01:03:49;6.97;;;3.20;;
12122;SDS011;6125;59.628;17.852;2023-01-09T01:06:19;3.60;;;3.00;;
12122;SDS011;6125;59.628;17.852;2023-01-09T01:09:03;6.43;;;3.40;;
12122;SDS011;6125;59.628;17.852;2023-01-09T01:11:30;4.60;;;3.10;;
12122;SDS011;6125;59.628;17.852;2023-01-09T01:13:59;5.60;;;3.73;;
12122;SDS011;6125;59.628;17.852;2023-01-09T01:16:26;4.80;;;3.50;;
12122;SDS011;6125;59.628;17.852;2023-01-09T01:18:53;4.20;;;3.00;;
12122;SDS011;6125;59.628;17.852;2023-01-09T01:21:24;4.03;;;3.10;;
12122;SDS011;6125;59.628;17.852;2023-01-09T01:23:51;7.27;;;3.40;;
12122;SDS011;6125;59.628;17.852;2023-01-09T01:26:18;4.83;;;3.10;;
12122;SDS011;6125;59.628;17.852;2023-01-09T01:28:47;3.57;;;3.10;;
12122;SDS011;6125;59.628;17.852;2023-01-09T01:31:14;5.30;;;3.53;;
12122;SDS011;6125;59.628;17.852;2023-01-09T01:33:43;4.47;;;3.50;;
12122;SDS011;6125;59.628;17.852;2023-01-09T01:36:10;4.70;;;3.27;;
12122;SDS011;6125;59.628;17.852;2023-01-09T01:38:40;3.63;;;3.23;;
12122;SDS011;6125;59.628;17.852;2023-01-09T01:41:07;4.50;;;3.30;;
12122;SDS011;6125;59.628;17.852;2023-01-09T01:43:48;3.70;;;3.03;;
12122;SDS011;6125;59.628;17.852;2023-01-09T01:46:16;3.97;;;3.00;;
12122;SDS011;6125;59.628;17.852;2023-01-09T01:48:44;7.17;;;3.57;;
12122;SDS011;6125;59.628;17.852;2023-01-09T01:51:13;5.53;;;3.67;;
12122;SDS011;6125;59.628;17.852;2023-01-09T01:53:46;4.27;;;2.73;;
12122;SDS011;6125;59.628;17.852;2023-01-09T01:56:17;4.33;;;3.20;;
12122;SDS011;6125;59.628;17.852;2023-01-09T01:58:49;5.10;;;3.27;;
12122;SDS011;6125;59.628;17.852;2023-01-09T02:01:20;5.43;;;3.33;;
12122;SDS011;6125;59.628;17.852;2023-01-09T02:03:51;4.47;;;3.00;;
12122;SDS011;6125;59.628;17.852;2023-01-09T02:06:20;5.20;;;3.33;;
12122;SDS011;6125;59.628;17.852;2023-01-09T02:08:49;6.50;;;3.27;;
12122;SDS011;6125;59.628;17.852;2023-01-09T02:11:16;4.30;;;3.37;;
12122;SDS011;6125;59.628;17.852;2023-01-09T02:13:45;5.90;;;3.13;;
12122;SDS011;6125;59.628;17.852;2023-01-09T02:16:15;5.40;;;3.30;;
12122;SDS011;6125;59.628;17.852;2023-01-09T02:18:51;6.27;;;3.40;;
12122;SDS011;6125;59.628;17.852;2023-01-09T02:21:27;3.60;;;3.30;;
12122;SDS011;6125;59.628;17.852;2023-01-09T02:27:12;4.97;;;3.10;;
12122;SDS011;6125;59.628;17.852;2023-01-09T02:32:59;5.47;;;2.83;;
12122;SDS011;6125;59.628;17.852;2023-01-09T02:35:48;4.33;;;3.13;;
12122;SDS011;6125;59.628;17.852;2023-01-09T02:38:22;6.30;;;4.03;;
12122;SDS011;6125;59.628;17.852;2023-01-09T02:40:57;5.30;;;3.67;;
12122;SDS011;6125;59.628;17.852;2023-01-09T02:43:28;5.43;;;3.83;;
12122;SDS011;6125;59.628;17.852;2023-01-09T02:45:58;5.10;;;3.60;;
12122;SDS011;6125;59.628;17.852;2023-01-09T02:48:27;4.53;;;4.03;;
12122;SDS011;6125;59.628;17.852;2023-01-09T02:50:59;5.63;;;3.83;;
12122;SDS011;6125;59.628;17.852;2023-01-09T02:53:49;5.30;;;4.20;;
12122;SDS011;6125;59.628;17.852;2023-01-09T02:56:38;5.47;;;3.40;;
12122;SDS011;6125;59.628;17.852;2023-01-09T02:59:19;6.20;;;3.70;;
12122;SDS011;6125;59.628;17.852;2023-01-09T03:01:55;7.23;;;4.10;;
12122;SDS011;6125;59.628;17.852;2023-01-09T03:04:40;7.80;;;3.77;;
12122;SDS011;6125;59.628;17.852;2023-01-09T03:07:14;8.00;;;3.57;;
12122;SDS011;6125;59.628;17.852;2023-01-09T03:09:48;5.33;;;3.80;;
12122;SDS011;6125;59.628;17.852;2023-01-09T03:12:19;5.67;;;3.77;;
12122;SDS011;6125;59.628;17.852;2023-01-09T03:14:50;5.13;;;3.87;;
12122;SDS011;6125;59.628;17.852;2023-01-09T03:17:21;6.07;;;4.07;;
12122;SDS011;6125;59.628;17.852;2023-01-09T03:19:54;6.17;;;4.40;;
12122;SDS011;6125;59.628;17.852;2023-01-09T03:22:24;6.13;;;4.30;;
12122;SDS011;6125;59.628;17.852;2023-01-09T03:24:51;6.87;;;4.40;;
12122;SDS011;6125;59.628;17.852;2023-01-09T03:27:18;6.77;;;4.60;;
12122;SDS011;6125;59.628;17.852;2023-01-09T03:29:45;6.00;;;4.20;;
12122;SDS011;6125;59.628;17.852;2023-01-09T03:32:15;6.53;;;4.40;;
12122;SDS011;6125;59.628;17.852;2023-01-09T03:34:42;6.87;;;5.17;;
12122;SDS011;6125;59.628;17.852;2023-01-09T03:37:18;11.17;;;4.73;;
12122;SDS011;6125;59.628;17.852;2023-01-09T03:39:45;6.67;;;4.57;;
12122;SDS011;6125;59.628;17.852;2023-01-09T03:42:12;7.43;;;4.27;;
12122;SDS011;6125;59.628;17.852;2023-01-09T03:44:39;6.00;;;4.40;;
12122;SDS011;6125;59.628;17.852;2023-01-09T03:47:06;9.77;;;4.93;;
12122;SDS011;6125;59.628;17.852;2023-01-09T03:49:33;8.70;;;5.27;;
12122;SDS011;6125;59.628;17.852;2023-01-09T03:52:02;10.30;;;4.87;;
12122;SDS011;6125;59.628;17.852;2023-01-09T03:54:30;10.43;;;5.03;;
12122;SDS011;6125;59.628;17.852;2023-01-09T03:56:59;14.20;;;6.27;;
12122;SDS011;6125;59.628;17.852;2023-01-09T03:59:26;11.93;;;5.77;;
12122;SDS011;6125;59.628;17.852;2023-01-09T04:01:53;10.33;;;5.60;;
12122;SDS011;6125;59.628;17.852;2023-01-09T04:04:21;12.50;;;5.63;;
12122;SDS011;6125;59.628;17.852;2023-01-09T04:06:48;18.67;;;6.37;;
12122;SDS011;6125;59.628;17.852;2023-01-09T04:09:15;22.80;;;7.13;;
12122;SDS011;6125;59.628;17.852;2023-01-09T04:11:43;10.53;;;5.83;;
12122;SDS011;6125;59.628;17.852;2023-01-09T04:14:10;29.73;;;6.77;;
12122;SDS011;6125;59.628;17.852;2023-01-09T04:16:37;19.60;;;7.73;;
12122;SDS011;6125;59.628;17.852;2023-01-09T04:19:06;13.23;;;6.17;;
12122;SDS011;6125;59.628;17.852;2023-01-09T04:21:33;10.50;;;5.80;;
12122;SDS011;6125;59.628;17.852;2023-01-09T04:24:04;23.30;;;6.77;;
12122;SDS011;6125;59.628;17.852;2023-01-09T04:26:32;15.30;;;6.50;;
12122;SDS011;6125;59.628;17.852;2023-01-09T04:29:00;21.03;;;6.10;;
12122;SDS011;6125;59.628;17.852;2023-01-09T04:31:28;16.03;;;6.40;;
12122;SDS011;6125;59.628;17.852;2023-01-09T04:33:56;31.37;;;8.27;;
12122;SDS011;6125;59.628;17.852;2023-01-09T04:36:23;42.70;;;9.40;;
12122;SDS011;6125;59.628;17.852;2023-01-09T04:38:50;21.83;;;8.33;;
12122;SDS011;6125;59.628;17.852;2023-01-09T04:41:17;31.63;;;7.13;;
12122;SDS011;6125;59.628;17.852;2023-01-09T04:44:02;12.23;;;6.00;;
12122;SDS011;6125;59.628;17.852;2023-01-09T04:46:29;36.30;;;7.10;;
12122;SDS011;6125;59.628;17.852;2023-01-09T04:48:58;19.47;;;6.03;;
12122;SDS011;6125;59.628;17.852;2023-01-09T04:51:26;14.97;;;6.80;;
12122;SDS011;6125;59.628;17.852;2023-01-09T04:53:53;24.70;;;6.93;;
12122;SDS011;6125;59.628;17.852;2023-01-09T04:56:22;19.93;;;6.47;;
12122;SDS011;6125;59.628;17.852;2023-01-09T04:58:49;21.43;;;7.63;;
12122;SDS011;6125;59.628;17.852;2023-01-09T05:01:18;22.53;;;6.80;;
12122;SDS011;6125;59.628;17.852;2023-01-09T05:03:45;19.50;;;7.80;;
12122;SDS011;6125;59.628;17.852;2023-01-09T05:06:13;19.83;;;7.70;;
12122;SDS011;6125;59.628;17.852;2023-01-09T05:08:41;21.70;;;6.23;;
12122;SDS011;6125;59.628;17.852;2023-01-09T05:11:08;24.70;;;8.00;;
12122;SDS011;6125;59.628;17.852;2023-01-09T05:13:35;18.87;;;7.20;;
12122;SDS011;6125;59.628;17.852;2023-01-09T05:16:02;25.27;;;7.50;;
12122;SDS011;6125;59.628;17.852;2023-01-09T05:18:31;22.40;;;8.43;;
12122;SDS011;6125;59.628;17.852;2023-01-09T05:21:04;20.03;;;6.93;;
12122;SDS011;6125;59.628;17.852;2023-01-09T05:23:31;27.07;;;7.67;;
12122;SDS011;6125;59.628;17.852;2023-01-09T05:26:06;33.80;;;8.73;;
12122;SDS011;6125;59.628;17.852;2023-01-09T05:28:33;16.20;;;7.50;;
12122;SDS011;6125;59.628;17.852;2023-01-09T05:31:01;28.87;;;8.90;;
12122;SDS011;6125;59.628;17.852;2023-01-09T05:33:28;21.90;;;8.23;;
12122;SDS011;6125;59.628;17.852;2023-01-09T05:35:57;16.67;;;7.80;;
12122;SDS011;6125;59.628;17.852;2023-01-09T05:38:24;15.67;;;8.60;;
12122;SDS011;6125;59.628;17.852;2023-01-09T05:40:50;16.30;;;8.60;;
12122;SDS011;6125;59.628;17.852;2023-01-09T05:43:17;14.50;;;8.27;;
12122;SDS011;6125;59.628;17.852;2023-01-09T05:45:45;20.97;;;10.43;;
12122;SDS011;6125;59.628;17.852;2023-01-09T05:48:12;19.27;;;9.43;;
12122;SDS011;6125;59.628;17.852;2023-01-09T05:50:39;16.20;;;8.33;;
12122;SDS011;6125;59.628;17.852;2023-01-09T05:53:07;20.00;;;8.03;;
12122;SDS011;6125;59.628;17.852;2023-01-09T05:55:34;13.47;;;7.87;;
12122;SDS011;6125;59.628;17.852;2023-01-09T05:58:02;15.60;;;8.23;;
12122;SDS011;6125;59.628;17.852;2023-01-09T06:00:29;18.50;;;8.57;;
12122;SDS011;6125;59.628;17.852;2023-01-09T06:02:56;16.60;;;7.80;;
12122;SDS011;6125;59.628;17.852;2023-01-09T06:05:23;14.17;;;7.90;;
12122;SDS011;6125;59.628;17.852;2023-01-09T06:07:52;16.37;;;8.37;;
12122;SDS011;6125;59.628;17.852;2023-01-09T06:10:21;20.83;;;8.63;;
12122;SDS011;6125;59.628;17.852;2023-01-09T06:12:49;24.53;;;9.17;;
12122;SDS011;6125;59.628;17.852;2023-01-09T06:15:17;16.20;;;8.43;;
12122;SDS011;6125;59.628;17.852;2023-01-09T06:17:45;17.47;;;8.03;;
12122;SDS011;6125;59.628;17.852;2023-01-09T06:20:15;14.00;;;8.20;;
12122;SDS011;6125;59.628;17.852;2023-01-09T06:22:42;17.47;;;9.27;;
12122;SDS011;6125;59.628;17.852;2023-01-09T06:25:09;20.60;;;9.10;;
12122;SDS011;6125;59.628;17.852;2023-01-09T06:27:40;22.60;;;9.40;;
12122;SDS011;6125;59.628;17.852;2023-01-09T06:30:07;22.93;;;9.73;;
12122;SDS011;6125;59.628;17.852;2023-01-09T06:32:35;19.13;;;9.53;;
12122;SDS011;6125;59.628;17.852;2023-01-09T06:35:03;20.10;;;9.87;;
12122;SDS011;6125;59.628;17.852;2023-01-09T06:37:30;22.87;;;10.00;;
12122;SDS011;6125;59.628;17.852;2023-01-09T06:39:57;23.17;;;10.73;;
12122;SDS011;6125;59.628;17.852;2023-01-09T06:42:25;44.60;;;11.07;;
12122;SDS011;6125;59.628;17.852;2023-01-09T06:44:55;22.97;;;8.73;;
12122;SDS011;6125;59.628;17.852;2023-01-09T06:47:22;32.93;;;10.53;;
12122;SDS011;6125;59.628;17.852;2023-01-09T06:49:52;16.67;;;9.17;;
12122;SDS011;6125;59.628;17.852;2023-01-09T06:52:19;23.07;;;9.47;;
12122;SDS011;6125;59.628;17.852;2023-01-09T06:54:46;39.47;;;10.70;;
12122;SDS011;6125;59.628;17.852;2023-01-09T06:57:13;22.50;;;8.77;;
12122;SDS011;6125;59.628;17.852;2023-01-09T06:59:40;34.53;;;10.90;;
12122;SDS011;6125;59.628;17.852;2023-01-09T07:02:10;35.23;;;9.03;;
12122;SDS011;6125;59.628;17.852;2023-01-09T07:04:44;43.07;;;9.13;;
12122;SDS011;6125;59.628;17.852;2023-01-09T07:07:11;24.80;;;8.47;;
12122;SDS011;6125;59.628;17.852;2023-01-09T07:09:48;29.83;;;8.77;;
12122;SDS011;6125;59.628;17.852;2023-01-09T07:12:16;18.67;;;7.87;;
12122;SDS011;6125;59.628;17.852;2023-01-09T07:14:44;30.03;;;9.80;;
12122;SDS011;6125;59.628;17.852;2023-01-09T07:17:12;34.73;;;9.00;;
12122;SDS011;6125;59.628;17.852;2023-01-09T07:19:41;25.07;;;8.13;;
12122;SDS011;6125;59.628;17.852;2023-01-09T07:22:08;21.67;;;7.90;;
12122;SDS011;6125;59.628;17.852;2023-01-09T07:24:36;23.83;;;8.03;;
12122;SDS011;6125;59.628;17.852;2023-01-09T07:27:04;58.83;;;10.00;;
12122;SDS011;6125;59.628;17.852;2023-01-09T07:29:33;30.43;;;8.40;;
12122;SDS011;6125;59.628;17.852;2023-01-09T07:32:00;28.80;;;7.87;;
12122;SDS011;6125;59.628;17.852;2023-01-09T07:34:28;19.13;;;7.47;;
12122;SDS011;6125;59.628;17.852;2023-01-09T07:36:55;15.93;;;7.13;;
12122;SDS011;6125;59.628;17.852;2023-01-09T07:39:23;21.07;;;8.37;;
12122;SDS011;6125;59.628;17.852;2023-01-09T07:41:50;25.40;;;7.40;;
12122;SDS011;6125;59.628;17.852;2023-01-09T07:44:17;19.43;;;7.47;;
12122;SDS011;6125;59.628;17.852;2023-01-09T07:46:44;25.97;;;8.40;;
12122;SDS011;6125;59.628;17.852;2023-01-09T07:49:11;24.40;;;7.93;;
12122;SDS011;6125;59.628;17.852;2023-01-09T07:51:39;20.73;;;7.27;;
12122;SDS011;6125;59.628;17.852;2023-01-09T07:54:08;19.50;;;7.10;;
12122;SDS011;6125;59.628;17.852;2023-01-09T07:56:36;32.70;;;8.13;;
12122;SDS011;6125;59.628;17.852;2023-01-09T07:59:04;21.03;;;7.97;;
12122;SDS011;6125;59.628;17.852;2023-01-09T08:01:31;25.40;;;8.57;;
12122;SDS011;6125;59.628;17.852;2023-01-09T08:03:58;25.97;;;7.60;;
12122;SDS011;6125;59.628;17.852;2023-01-09T08:06:25;49.13;;;9.17;;
12122;SDS011;6125;59.628;17.852;2023-01-09T08:08:54;22.83;;;8.37;;
12122;SDS011;6125;59.628;17.852;2023-01-09T08:11:22;25.43;;;8.00;;
12122;SDS011;6125;59.628;17.852;2023-01-09T08:13:49;20.10;;;7.53;;
12122;SDS011;6125;59.628;17.852;2023-01-09T08:16:16;22.30;;;8.10;;
12122;SDS011;6125;59.628;17.852;2023-01-09T08:18:43;27.80;;;7.87;;
12122;SDS011;6125;59.628;17.852;2023-01-09T08:21:13;26.83;;;8.00;;
12122;SDS011;6125;59.628;17.852;2023-01-09T08:23:40;32.43;;;6.87;;
12122;SDS011;6125;59.628;17.852;2023-01-09T08:26:10;23.97;;;7.30;;
12122;SDS011;6125;59.628;17.852;2023-01-09T08:28:39;20.70;;;7.30;;
12122;SDS011;6125;59.628;17.852;2023-01-09T08:31:06;35.47;;;7.47;;
12122;SDS011;6125;59.628;17.852;2023-01-09T08:33:33;21.33;;;7.90;;
12122;SDS011;6125;59.628;17.852;2023-01-09T08:36:00;34.63;;;7.07;;
12122;SDS011;6125;59.628;17.852;2023-01-09T08:38:30;22.50;;;7.37;;
12122;SDS011;6125;59.628;17.852;2023-01-09T08:40:59;21.67;;;7.07;;
12122;SDS011;6125;59.628;17.852;2023-01-09T08:43:48;42.63;;;7.43;;
12122;SDS011;6125;59.628;17.852;2023-01-09T08:46:32;33.33;;;7.97;;
12122;SDS011;6125;59.628;17.852;2023-01-09T08:49:17;16.30;;;7.50;;
12122;SDS011;6125;59.628;17.852;2023-01-09T08:51:44;24.27;;;7.73;;
12122;SDS011;6125;59.628;17.852;2023-01-09T08:54:11;21.07;;;8.43;;
12122;SDS011;6125;59.628;17.852;2023-01-09T08:56:38;22.23;;;7.30;;
12122;SDS011;6125;59.628;17.852;2023-01-09T08:59:06;25.73;;;8.17;;
12122;SDS011;6125;59.628;17.852;2023-01-09T09:01:35;36.37;;;7.60;;
12122;SDS011;6125;59.628;17.852;2023-01-09T09:04:02;17.40;;;7.40;;
12122;SDS011;6125;59.628;17.852;2023-01-09T09:06:30;25.03;;;8.87;;
12122;SDS011;6125;59.628;17.852;2023-01-09T09:08:57;14.77;;;6.70;;
12122;SDS011;6125;59.628;17.852;2023-01-09T09:11:27;16.60;;;7.20;;
12122;SDS011;6125;59.628;17.852;2023-01-09T09:13:55;16.03;;;7.30;;
12122;SDS011;6125;59.628;17.852;2023-01-09T09:16:25;15.23;;;6.93;;
12122;SDS011;6125;59.628;17.852;2023-01-09T09:18:53;19.93;;;8.60;;
12122;SDS011;6125;59.628;17.852;2023-01-09T09:21:20;19.00;;;7.67;;
12122;SDS011;6125;59.628;17.852;2023-01-09T09:23:47;16.23;;;6.97;;
12122;SDS011;6125;59.628;17.852;2023-01-09T09:26:14;25.27;;;8.73;;
12122;SDS011;6125;59.628;17.852;2023-01-09T09:28:41;18.40;;;7.80;;
12122;SDS011;6125;59.628;17.852;2023-01-09T09:31:11;26.13;;;8.33;;
12122;SDS011;6125;59.628;17.852;2023-01-09T09:33:40;25.47;;;8.83;;
12122;SDS011;6125;59.628;17.852;2023-01-09T09:36:10;19.17;;;7.83;;
12122;SDS011;6125;59.628;17.852;2023-01-09T09:38:37;19.57;;;9.07;;
12122;SDS011;6125;59.628;17.852;2023-01-09T09:41:08;18.00;;;8.60;;
12122;SDS011;6125;59.628;17.852;2023-01-09T09:44:22;20.83;;;8.37;;
12122;SDS011;6125;59.628;17.852;2023-01-09T09:47:20;17.97;;;8.73;;
12122;SDS011;6125;59.628;17.852;2023-01-09T09:50:03;26.13;;;8.53;;
12122;SDS011;6125;59.628;17.852;2023-01-09T09:52:40;21.43;;;8.60;;
12122;SDS011;6125;59.628;17.852;2023-01-09T09:55:15;22.07;;;8.33;;
12122;SDS011;6125;59.628;17.852;2023-01-09T09:57:45;20.17;;;9.10;;
12122;SDS011;6125;59.628;17.852;2023-01-09T10:00:15;24.03;;;8.53;;
12122;SDS011;6125;59.628;17.852;2023-01-09T10:02:45;20.73;;;8.73;;
12122;SDS011;6125;59.628;17.852;2023-01-09T10:05:19;18.50;;;8.67;;
12122;SDS011;6125;59.628;17.852;2023-01-09T10:07:51;18.63;;;8.00;;
12122;SDS011;6125;59.628;17.852;2023-01-09T10:10:24;24.43;;;9.57;;
12122;SDS011;6125;59.628;17.852;2023-01-09T10:12:59;17.90;;;8.30;;
12122;SDS011;6125;59.628;17.852;2023-01-09T10:15:49;17.83;;;8.77;;
12122;SDS011;6125;59.628;17.852;2023-01-09T10:18:24;18.87;;;8.43;;
12122;SDS011;6125;59.628;17.852;2023-01-09T10:21:01;18.50;;;8.27;;
12122;SDS011;6125;59.628;17.852;2023-01-09T10:26:26;15.00;;;7.60;;
12122;SDS011;6125;59.628;17.852;2023-01-09T10:31:52;14.70;;;7.60;;
12122;SDS011;6125;59.628;17.852;2023-01-09T10:34:34;11.23;;;6.50;;
12122;SDS011;6125;59.628;17.852;2023-01-09T10:37:14;12.53;;;7.73;;
12122;SDS011;6125;59.628;17.852;2023-01-09T10:39:47;11.43;;;7.20;;
12122;SDS011;6125;59.628;17.852;2023-01-09T10:42:21;15.10;;;7.47;;
12122;SDS011;6125;59.628;17.852;2023-01-09T10:44:56;14.87;;;7.87;;
12122;SDS011;6125;59.628;17.852;2023-01-09T10:47:29;12.47;;;7.93;;
12122;SDS011;6125;59.628;17.852;2023-01-09T10:50:00;15.17;;;7.37;;
12122;SDS011;6125;59.628;17.852;2023-01-09T10:52:47;13.63;;;7.83;;
12122;SDS011;6125;59.628;17.852;2023-01-09T10:55:18;11.20;;;7.17;;
12122;SDS011;6125;59.628;17.852;2023-01-09T10:57:58;11.13;;;7.53;;
12122;SDS011;6125;59.628;17.852;2023-01-09T11:00:27;10.30;;;7.27;;
12122;SDS011;6125;59.628;17.852;2023-01-09T11:02:56;12.10;;;8.03;;
12122;SDS011;6125;59.628;17.852;2023-01-09T11:05:25;11.80;;;8.23;;
12122;SDS011;6125;59.628;17.852;2023-01-09T11:07:57;12.70;;;8.03;;
12122;SDS011;6125;59.628;17.852;2023-01-09T11:10:43;14.13;;;8.13;;
12122;SDS011;6125;59.628;17.852;2023-01-09T11:13:14;11.53;;;7.90;;
12122;SDS011;6125;59.628;17.852;2023-01-09T11:16:05;12.67;;;7.63;;
12122;SDS011;6125;59.628;17.852;2023-01-09T11:18:34;13.77;;;7.90;;
12122;SDS011;6125;59.628;17.852;2023-01-09T11:21:11;11.63;;;8.30;;
12122;SDS011;6125;59.628;17.852;2023-01-09T11:23:41;12.00;;;8.73;;
12122;SDS011;6125;59.628;17.852;2023-01-09T11:26:20;11.83;;;8.37;;
12122;SDS011;6125;59.628;17.852;2023-01-09T11:29:05;12.03;;;8.27;;
12122;SDS011;6125;59.628;17.852;2023-01-09T11:31:36;12.30;;;8.33;;
12122;SDS011;6125;59.628;17.852;2023-01-09T11:34:03;14.83;;;8.63;;
12122;SDS011;6125;59.628;17.852;2023-01-09T11:36:34;13.80;;;8.53;;
12122;SDS011;6125;59.628;17.852;2023-01-09T11:39:02;13.43;;;8.10;;
12122;SDS011;6125;59.628;17.852;2023-01-09T11:41:31;11.97;;;8.27;;
12122;SDS011;6125;59.628;17.852;2023-01-09T11:44:01;13.37;;;9.17;;
12122;SDS011;6125;59.628;17.852;2023-01-09T11:46:33;13.80;;;8.97;;
12122;SDS011;6125;59.628;17.852;2023-01-09T11:49:18;15.60;;;9.33;;
12122;SDS011;6125;59.628;17.852;2023-01-09T11:54:41;15.30;;;8.90;;
12122;SDS011;6125;59.628;17.852;2023-01-09T11:57:12;11.57;;;8.07;;
12122;SDS011;6125;59.628;17.852;2023-01-09T11:59:40;14.10;;;9.73;;
12122;SDS011;6125;59.628;17.852;2023-01-09T12:02:32;14.57;;;8.77;;
12122;SDS011;6125;59.628;17.852;2023-01-09T12:05:15;11.83;;;8.10;;
12122;SDS011;6125;59.628;17.852;2023-01-09T12:07:53;16.97;;;9.33;;
12122;SDS011;6125;59.628;17.852;2023-01-09T12:10:45;13.83;;;8.80;;
12122;SDS011;6125;59.628;17.852;2023-01-09T12:13:26;18.47;;;10.17;;
12122;SDS011;6125;59.628;17.852;2023-01-09T12:16:05;17.83;;;9.57;;
12122;SDS011;6125;59.628;17.852;2023-01-09T12:18:44;18.93;;;9.53;;
12122;SDS011;6125;59.628;17.852;2023-01-09T12:21:27;23.20;;;9.80;;
12122;SDS011;6125;59.628;17.852;2023-01-09T12:24:02;22.33;;;9.87;;
12122;SDS011;6125;59.628;17.852;2023-01-09T12:26:45;17.67;;;9.87;;
12122;SDS011;6125;59.628;17.852;2023-01-09T12:29:24;24.93;;;10.70;;
12122;SDS011;6125;59.628;17.852;2023-01-09T12:32:07;21.00;;;9.60;;
12122;SDS011;6125;59.628;17.852;2023-01-09T12:34:47;17.07;;;9.10;;
12122;SDS011;6125;59.628;17.852;2023-01-09T12:37:36;25.13;;;9.73;;
12122;SDS011;6125;59.628;17.852;2023-01-09T12:40:23;21.17;;;8.80;;
12122;SDS011;6125;59.628;17.852;2023-01-09T12:43:03;35.37;;;8.97;;
12122;SDS011;6125;59.628;17.852;2023-01-09T12:45:40;24.27;;;8.67;;
12122;SDS011;6125;59.628;17.852;2023-01-09T12:48:20;27.67;;;8.90;;
12122;SDS011;6125;59.628;17.852;2023-01-09T12:53:51;19.33;;;9.10;;
12122;SDS011;6125;59.628;17.852;2023-01-09T12:56:28;19.23;;;7.90;;
12122;SDS011;6125;59.628;17.852;2023-01-09T12:59:00;16.93;;;8.37;;
12122;SDS011;6125;59.628;17.852;2023-01-09T13:01:47;20.40;;;7.80;;
12122;SDS011;6125;59.628;17.852;2023-01-09T13:04:16;15.80;;;8.57;;
12122;SDS011;6125;59.628;17.852;2023-01-09T13:06:49;14.67;;;8.43;;
12122;SDS011;6125;59.628;17.852;2023-01-09T13:09:23;28.07;;;8.17;;
12122;SDS011;6125;59.628;17.852;2023-01-09T13:11:54;15.27;;;7.93;;
12122;SDS011;6125;59.628;17.852;2023-01-09T13:14:45;13.80;;;8.50;;
12122;SDS011;6125;59.628;17.852;2023-01-09T13:17:17;14.70;;;8.40;;
12122;SDS011;6125;59.628;17.852;2023-01-09T13:19:49;17.37;;;8.20;;
12122;SDS011;6125;59.628;17.852;2023-01-09T13:22:17;13.10;;;7.73;;
12122;SDS011;6125;59.628;17.852;2023-01-09T13:24:55;18.50;;;8.70;;
12122;SDS011;6125;59.628;17.852;2023-01-09T13:27:36;21.57;;;7.73;;
12122;SDS011;6125;59.628;17.852;2023-01-09T13:30:14;16.10;;;8.10;;
12122;SDS011;6125;59.628;17.852;2023-01-09T13:32:47;17.03;;;8.33;;
12122;SDS011;6125;59.628;17.852;2023-01-09T13:35:24;26.53;;;8.17;;
12122;SDS011;6125;59.628;17.852;2023-01-09T13:37:51;18.27;;;7.57;;
12122;SDS011;6125;59.628;17.852;2023-01-09T13:40:26;14.97;;;8.20;;
12122;SDS011;6125;59.628;17.852;2023-01-09T13:43:00;26.57;;;10.00;;
12122;SDS011;6125;59.628;17.852;2023-01-09T13:45:30;24.97;;;8.27;;
12122;SDS011;6125;59.628;17.852;2023-01-09T13:53:54;22.87;;;7.93;;
12122;SDS011;6125;59.628;17.852;2023-01-09T13:56:22;23.03;;;8.27;;
12122;SDS011;6125;59.628;17.852;2023-01-09T13:59:01;17.60;;;8.60;;
12122;SDS011;6125;59.628;17.852;2023-01-09T14:01:42;22.40;;;7.53;;
12122;SDS011;6125;59.628;17.852;2023-01-09T14:07:14;27.17;;;7.80;;
12122;SDS011;6125;59.628;17.852;2023-01-09T14:09:47;24.17;;;7.83;;
12122;SDS011;6125;59.628;17.852;2023-01-09T14:12:18;21.63;;;7.93;;
12122;SDS011;6125;59.628;17.852;2023-01-09T14:14:47;34.10;;;9.50;;
12122;SDS011;6125;59.628;17.852;2023-01-09T14:17:18;34.37;;;9.23;;
12122;SDS011;6125;59.628;17.852;2023-01-09T14:19:59;44.07;;;10.37;;
12122;SDS011;6125;59.628;17.852;2023-01-09T14:22:28;41.40;;;9.87;;
12122;SDS011;6125;59.628;17.852;2023-01-09T14:25:06;30.30;;;9.23;;
12122;SDS011;6125;59.628;17.852;2023-01-09T14:28:03;28.00;;;8.90;;
12122;SDS011;6125;59.628;17.852;2023-01-09T14:30:36;25.13;;;9.30;;
12122;SDS011;6125;59.628;17.852;2023-01-09T14:33:26;30.10;;;11.03;;
12122;SDS011;6125;59.628;17.852;2023-01-09T14:35:57;38.47;;;11.30;;
12122;SDS011;6125;59.628;17.852;2023-01-09T14:38:34;40.50;;;9.90;;
12122;SDS011;6125;59.628;17.852;2023-01-09T14:41:05;25.57;;;9.43;;
12122;SDS011;6125;59.628;17.852;2023-01-09T14:43:46;22.70;;;9.40;;
12122;SDS011;6125;59.628;17.852;2023-01-09T14:46:19;27.70;;;10.57;;
12122;SDS011;6125;59.628;17.852;2023-01-09T14:48:53;40.30;;;12.37;;
12122;SDS011;6125;59.628;17.852;2023-01-09T14:51:25;27.17;;;10.97;;
12122;SDS011;6125;59.628;17.852;2023-01-09T14:53:56;46.77;;;11.87;;
12122;SDS011;6125;59.628;17.852;2023-01-09T14:56:28;41.13;;;12.27;;
12122;SDS011;6125;59.628;17.852;2023-01-09T14:59:02;33.63;;;12.03;;
12122;SDS011;6125;59.628;17.852;2023-01-09T15:01:30;32.23;;;12.70;;
12122;SDS011;6125;59.628;17.852;2023-01-09T15:04:03;34.03;;;12.47;;
12122;SDS011;6125;59.628;17.852;2023-01-09T15:06:36;56.03;;;14.07;;
12122;SDS011;6125;59.628;17.852;2023-01-09T15:09:22;55.17;;;17.03;;
12122;SDS011;6125;59.628;17.852;2023-01-09T15:11:53;62.13;;;15.63;;
12122;SDS011;6125;59.628;17.852;2023-01-09T15:14:28;49.50;;;16.20;;
12122;SDS011;6125;59.628;17.852;2023-01-09T15:16:57;49.20;;;16.47;;
12122;SDS011;6125;59.628;17.852;2023-01-09T15:19:29;44.50;;;16.57;;
12122;SDS011;6125;59.628;17.852;2023-01-09T15:21:58;56.57;;;17.57;;
12122;SDS011;6125;59.628;17.852;2023-01-09T15:24:27;52.13;;;17.53;;
12122;SDS011;6125;59.628;17.852;2023-01-09T15:26:57;47.87;;;17.90;;
12122;SDS011;6125;59.628;17.852;2023-01-09T15:29:26;47.83;;;17.40;;